createdAt,value
2022-07-29T00:02:02.543Z,92951.50
2022-07-29T00:04:32.588Z,92945.38
2022-07-29T00:07:02.629Z,92940.84
2022-07-29T00:09:34.091Z,92942.31
2022-07-29T00:12:26.125Z,92942.97
2022-07-29T00:14:58.013Z,92932.72
2022-07-29T00:17:28.485Z,92936.03
2022-07-29T00:19:59.939Z,92941.97
2022-07-29T00:22:29.940Z,92940.16
2022-07-29T00:25:01.513Z,92937.78
2022-07-29T00:27:31.533Z,92940.69
2022-07-29T00:30:01.400Z,92939.47
2022-07-29T00:32:31.270Z,92939.59
2022-07-29T00:35:18.231Z,92936.97
2022-07-29T00:37:48.162Z,92939.31
2022-07-29T00:40:19.691Z,92936.59
2022-07-29T00:42:55.075Z,92937.84
2022-07-29T00:45:25.229Z,92940.56
2022-07-29T00:47:55.191Z,92939.50
2022-07-29T00:53:05.453Z,92939.94
2022-07-29T00:55:35.437Z,92945.38
2022-07-29T00:58:05.663Z,92947.63
2022-07-29T01:00:35.767Z,92946.78
2022-07-29T01:03:06.132Z,92940.00
2022-07-29T01:05:51.134Z,92944.97
2022-07-29T01:08:25.011Z,92941.66
2022-07-29T01:10:55.787Z,92938.09
2022-07-29T01:13:26.616Z,92927.88
2022-07-29T01:16:04.357Z,92928.69
2022-07-29T01:18:39.119Z,92923.25
2022-07-29T01:21:49.948Z,92926.88
2022-07-29T01:24:43.509Z,92924.00
2022-07-29T01:27:42.029Z,92919.03
2022-07-29T01:30:15.679Z,92924.97
2022-07-29T01:32:50.691Z,92925.25
2022-07-29T01:35:26.320Z,92924.59
2022-07-29T01:38:04.111Z,92921.84
2022-07-29T01:40:43.874Z,92927.00
2022-07-29T01:43:20.413Z,92933.09
2022-07-29T01:46:01.757Z,92930.34
2022-07-29T01:48:42.333Z,92926.50
2022-07-29T01:51:21.137Z,92922.22
2022-07-29T01:53:58.510Z,92913.63
2022-07-29T01:56:33.964Z,92922.03
2022-07-29T01:59:07.272Z,92922.22
2022-07-29T02:01:39.853Z,92913.34
2022-07-29T02:04:29.266Z,92914.19
2022-07-29T02:07:06.670Z,92915.97
2022-07-29T02:09:39.608Z,92908.09
2022-07-29T02:12:11.230Z,92908.81
2022-07-29T02:14:47.746Z,92905.22
2022-07-29T02:17:26.900Z,92906.59
2022-07-29T02:20:01.168Z,92904.53
2022-07-29T02:22:34.071Z,92919.88
2022-07-29T02:25:05.250Z,92907.84
2022-07-29T02:27:38.625Z,92913.00
2022-07-29T02:30:12.854Z,92912.97
2022-07-29T02:32:47.214Z,92911.31
2022-07-29T02:35:18.979Z,92904.56
2022-07-29T02:38:10.835Z,92910.13
2022-07-29T02:40:43.679Z,92904.28
2022-07-29T02:43:14.909Z,92912.03
2022-07-29T02:45:46.248Z,92906.50
2022-07-29T02:48:29.507Z,92902.50
2022-07-29T02:51:09.676Z,92906.00
2022-07-29T02:53:45.848Z,92903.81
2022-07-29T02:56:20.209Z,92906.97
2022-07-29T02:58:57.629Z,92907.94
2022-07-29T03:01:31.059Z,92901.72
2022-07-29T03:04:07.327Z,92907.16
2022-07-29T03:06:39.095Z,92914.06
2022-07-29T03:09:13.617Z,92915.03
2022-07-29T03:11:50.422Z,92916.56
2022-07-29T03:14:22.131Z,92908.78
2022-07-29T03:16:53.690Z,92917.50
2022-07-29T03:19:25.566Z,92919.84
2022-07-29T03:21:55.568Z,92927.75
2022-07-29T03:24:34.106Z,92925.28
2022-07-29T03:27:05.029Z,92921.25
2022-07-29T03:29:36.230Z,92920.31
2022-07-29T03:32:09.044Z,92921.69
2022-07-29T03:34:41.772Z,92930.94
2022-07-29T03:37:12.110Z,92924.56
2022-07-29T03:39:45.190Z,92934.97
2022-07-29T03:42:18.455Z,92929.00
2022-07-29T03:44:51.739Z,92930.53
2022-07-29T03:47:47.960Z,92922.50
2022-07-29T03:50:22.739Z,92927.06
2022-07-29T03:54:07.855Z,92920.81
2022-07-29T03:56:47.491Z,92924.97
2022-07-29T03:59:18.886Z,92929.53
2022-07-29T04:01:50.186Z,92937.16
2022-07-29T04:04:20.706Z,92938.53
2022-07-29T04:06:50.827Z,92932.69
2022-07-29T04:09:22.398Z,92933.09
2022-07-29T04:12:02.523Z,92937.41
2022-07-29T04:14:35.733Z,92937.53
2022-07-29T04:17:07.411Z,92935.00
2022-07-29T04:19:37.750Z,92929.75
2022-07-29T04:22:07.735Z,92935.78
2022-07-29T04:24:41.845Z,92939.19
2022-07-29T04:27:13.987Z,92935.28
2022-07-29T04:29:55.977Z,92931.16
2022-07-29T04:32:27.908Z,92939.25
2022-07-29T04:34:57.881Z,92935.13
2022-07-29T04:37:27.731Z,92939.09
2022-07-29T04:39:59.310Z,92934.69
2022-07-29T04:42:29.432Z,92945.22
2022-07-29T04:45:01.367Z,92936.94
2022-07-29T04:47:31.393Z,92937.88
2022-07-29T04:50:01.288Z,92935.50
2022-07-29T04:52:31.305Z,92944.25
2022-07-29T04:55:02.745Z,92943.22
2022-07-29T04:57:32.789Z,92945.63
2022-07-29T05:00:02.789Z,92949.84
2022-07-29T05:02:32.803Z,92953.41
2022-07-29T05:05:02.900Z,92954.13
2022-07-29T05:07:32.909Z,92953.50
2022-07-29T05:10:04.449Z,92954.25
2022-07-29T05:12:34.326Z,92958.41
2022-07-29T05:15:04.236Z,92950.97
2022-07-29T05:17:35.076Z,92956.75
2022-07-29T05:20:05.312Z,92957.75
2022-07-29T05:22:35.355Z,92955.59
2022-07-29T05:25:09.301Z,92956.56
2022-07-29T05:27:39.716Z,92960.66
2022-07-29T05:30:11.497Z,92953.16
2022-07-29T05:32:41.431Z,92956.88
2022-07-29T05:35:12.736Z,92953.81
2022-07-29T05:37:43.088Z,92964.63
2022-07-29T05:40:14.971Z,92956.72
2022-07-29T05:42:44.949Z,92947.44
2022-07-29T05:45:15.167Z,92953.94
2022-07-29T05:47:45.031Z,92967.53
2022-07-29T05:50:15.137Z,92963.38
2022-07-29T05:52:45.079Z,92962.31
2022-07-29T05:55:16.779Z,92968.03
2022-07-29T05:57:46.925Z,92966.31
2022-07-29T06:00:17.970Z,92959.66
2022-07-29T06:02:47.852Z,92957.50
2022-07-29T06:05:19.131Z,92965.06
2022-07-29T06:07:50.874Z,92966.47
2022-07-29T06:10:26.086Z,92972.59
2022-07-29T06:12:56.248Z,92976.28
2022-07-29T06:15:26.488Z,92974.94
2022-07-29T06:17:59.364Z,92981.38
2022-07-29T06:20:32.543Z,92971.56
2022-07-29T06:23:05.769Z,92979.72
2022-07-29T06:25:38.028Z,92974.22
2022-07-29T06:28:08.205Z,92976.78
2022-07-29T06:30:38.229Z,92981.56
2022-07-29T06:33:08.364Z,92977.53
2022-07-29T06:35:41.801Z,92978.78
2022-07-29T06:38:30.137Z,92980.66
2022-07-29T06:41:03.940Z,92976.78
2022-07-29T06:43:51.741Z,92980.09
2022-07-29T06:46:25.782Z,92978.69
2022-07-29T06:48:56.180Z,92976.06
2022-07-29T06:54:03.770Z,92968.84
2022-07-29T06:56:38.272Z,92963.13
2022-07-29T06:59:09.120Z,92968.88
2022-07-29T07:01:40.352Z,92974.88
2022-07-29T07:04:10.854Z,92978.16
2022-07-29T07:06:41.214Z,92976.94
2022-07-29T07:09:12.629Z,92981.66
2022-07-29T07:11:42.667Z,92980.59
2022-07-29T07:14:12.506Z,92969.22
2022-07-29T07:16:42.628Z,92972.53
2022-07-29T07:19:12.585Z,92978.91
2022-07-29T07:21:44.210Z,92971.72
2022-07-29T07:24:15.779Z,92976.38
2022-07-29T07:26:46.046Z,92977.16
2022-07-29T07:29:15.970Z,92977.09
2022-07-29T07:31:46.948Z,92972.94
2022-07-29T07:34:17.132Z,92970.03
2022-07-29T07:36:58.792Z,92978.47
2022-07-29T07:39:30.188Z,92975.34
2022-07-29T07:42:00.209Z,92977.38
2022-07-29T07:44:30.323Z,92975.41
2022-07-29T07:47:03.864Z,92975.09
2022-07-29T07:49:42.641Z,92979.28
2022-07-29T07:52:15.227Z,92982.09
2022-07-29T07:54:46.907Z,92984.78
2022-07-29T07:57:17.635Z,92979.09
2022-07-29T07:59:47.831Z,92980.22
2022-07-29T08:02:17.959Z,92975.09
2022-07-29T08:04:47.964Z,92974.25
2022-07-29T08:07:18.043Z,92977.53
2022-07-29T08:09:49.427Z,92976.97
2022-07-29T08:12:19.455Z,92981.72
2022-07-29T08:14:49.379Z,92979.34
2022-07-29T08:17:19.291Z,92981.19
2022-07-29T08:19:49.726Z,92978.25
2022-07-29T08:22:19.626Z,92977.34
2022-07-29T08:24:55.799Z,92970.88
2022-07-29T08:27:43.062Z,92977.84
2022-07-29T08:30:14.747Z,92967.78
2022-07-29T08:32:53.909Z,92970.41
2022-07-29T08:35:24.743Z,92974.19
2022-07-29T08:37:54.764Z,92964.13
2022-07-29T08:40:30.535Z,92959.88
2022-07-29T08:43:08.467Z,92965.81
2022-07-29T08:45:48.643Z,92965.31
2022-07-29T08:48:21.350Z,92962.06
2022-07-29T08:50:58.502Z,92962.31
2022-07-29T08:53:31.915Z,92965.31
2022-07-29T08:56:03.938Z,92955.00
2022-07-29T08:58:38.280Z,92954.91
2022-07-29T09:01:12.399Z,92958.44
2022-07-29T09:03:45.220Z,92954.16
2022-07-29T09:06:18.247Z,92949.44
2022-07-29T09:08:48.636Z,92948.84
2022-07-29T09:11:20.251Z,92939.69
2022-07-29T09:13:50.968Z,92945.63
2022-07-29T09:16:43.845Z,92944.00
2022-07-29T09:19:26.728Z,92943.94
2022-07-29T09:22:03.224Z,92946.03
2022-07-29T09:24:48.702Z,92947.25
2022-07-29T09:27:30.191Z,92942.38
2022-07-29T09:30:01.982Z,92938.47
2022-07-29T09:32:32.407Z,92937.78
2022-07-29T09:35:22.390Z,92941.22
2022-07-29T09:37:53.084Z,92942.59
2022-07-29T09:40:25.985Z,92933.69
2022-07-29T09:42:58.589Z,92939.56
2022-07-29T09:45:34.953Z,92939.34
2022-07-29T09:48:19.765Z,92936.38
2022-07-29T09:54:05.307Z,92936.13
2022-07-29T09:56:45.283Z,92937.81
2022-07-29T09:59:15.304Z,92925.63
2022-07-29T10:01:46.085Z,92927.09
2022-07-29T10:04:16.190Z,92923.09
2022-07-29T10:07:04.882Z,92924.63
2022-07-29T10:09:37.857Z,92924.25
2022-07-29T10:12:15.030Z,92915.09
2022-07-29T10:14:45.930Z,92912.06
2022-07-29T10:17:15.875Z,92921.59
2022-07-29T10:19:46.337Z,92915.84
2022-07-29T10:22:31.156Z,92917.38
2022-07-29T10:25:08.704Z,92915.91
2022-07-29T10:27:39.128Z,92911.13
2022-07-29T10:30:11.096Z,92921.59
2022-07-29T10:33:13.406Z,92910.78
2022-07-29T10:36:10.161Z,92907.91
2022-07-29T10:38:57.673Z,92912.88
2022-07-29T10:41:52.417Z,92913.47
2022-07-29T10:44:25.158Z,92906.03
2022-07-29T10:46:56.398Z,92898.91
2022-07-29T10:49:30.706Z,92896.31
2022-07-29T10:52:05.989Z,92899.16
2022-07-29T10:54:52.332Z,92896.84
2022-07-29T10:57:57.688Z,92904.03
2022-07-29T11:00:34.331Z,92897.31
2022-07-29T11:03:10.801Z,92890.91
2022-07-29T11:06:00.308Z,92882.56
2022-07-29T11:08:32.168Z,92892.06
2022-07-29T11:11:36.991Z,92892.94
2022-07-29T11:14:10.210Z,92883.50
2022-07-29T11:17:06.269Z,92875.75
2022-07-29T11:19:40.258Z,92875.69
2022-07-29T11:22:16.614Z,92874.72
2022-07-29T11:24:50.193Z,92871.34
2022-07-29T11:27:23.409Z,92878.53
2022-07-29T11:30:04.664Z,92877.56
2022-07-29T11:32:41.974Z,92869.47
2022-07-29T11:35:19.251Z,92864.97
2022-07-29T11:38:31.762Z,92862.91
2022-07-29T11:41:27.549Z,92856.50
2022-07-29T11:43:59.969Z,92855.34
2022-07-29T11:46:53.948Z,92848.97
2022-07-29T11:49:31.700Z,92854.47
2022-07-29T11:52:04.309Z,92849.63
2022-07-29T11:54:38.920Z,92853.47
2022-07-29T11:57:36.630Z,92842.41
2022-07-29T12:00:12.702Z,92836.25
2022-07-29T12:02:48.314Z,92837.44
2022-07-29T12:05:36.039Z,92832.53
2022-07-29T12:08:20.989Z,92834.34
2022-07-29T12:10:52.778Z,92829.28
2022-07-29T12:13:37.818Z,92838.06
2022-07-29T12:16:08.731Z,92828.00
2022-07-29T12:18:46.009Z,92832.75
2022-07-29T12:21:15.472Z,92832.16
2022-07-29T12:24:01.777Z,92835.25
2022-07-29T12:26:35.899Z,92835.34
2022-07-29T12:29:11.240Z,92830.94
2022-07-29T12:31:57.886Z,92830.38
2022-07-29T12:34:32.355Z,92830.03
2022-07-29T12:37:02.330Z,92830.16
2022-07-29T12:39:32.790Z,92827.25
2022-07-29T12:42:03.771Z,92823.66
2022-07-29T12:44:48.081Z,92825.47
2022-07-29T12:47:19.406Z,92819.38
2022-07-29T12:49:51.645Z,92819.56
2022-07-29T12:54:12.689Z,92827.66
2022-07-29T12:56:44.298Z,92825.22
2022-07-29T12:59:20.300Z,92821.88
2022-07-29T13:01:52.277Z,92823.97
2022-07-29T13:04:29.718Z,92817.66
2022-07-29T13:07:06.876Z,92813.72
2022-07-29T13:09:46.751Z,92808.25
2022-07-29T13:12:18.092Z,92810.06
2022-07-29T13:14:51.172Z,92810.94
2022-07-29T13:17:24.375Z,92807.50
2022-07-29T13:20:07.304Z,92811.81
2022-07-29T13:22:39.150Z,92809.38
2022-07-29T13:25:12.140Z,92800.63
2022-07-29T13:27:42.928Z,92807.88
2022-07-29T13:30:14.486Z,92800.94
2022-07-29T13:32:44.096Z,92798.50
2022-07-29T13:35:14.651Z,92794.03
2022-07-29T13:37:45.452Z,92794.03
2022-07-29T13:40:17.472Z,92798.13
2022-07-29T13:42:47.582Z,92793.44
2022-07-29T13:45:18.036Z,92793.44
2022-07-29T13:47:49.291Z,92796.59
2022-07-29T13:50:19.172Z,92791.47
2022-07-29T13:52:49.890Z,92781.97
2022-07-29T13:55:21.454Z,92774.06
2022-07-29T13:57:51.019Z,92775.56
2022-07-29T14:00:21.511Z,92770.75
2022-07-29T14:02:51.516Z,92770.22
2022-07-29T14:05:21.701Z,92778.31
2022-07-29T14:07:51.893Z,92779.66
2022-07-29T14:10:23.525Z,92770.38
2022-07-29T14:12:53.585Z,92773.06
2022-07-29T14:15:24.668Z,92773.81
2022-07-29T14:17:54.698Z,92775.69
2022-07-29T14:20:24.692Z,92773.09
2022-07-29T14:22:54.639Z,92773.69
2022-07-29T14:25:26.383Z,92770.44
2022-07-29T14:27:56.738Z,92765.13
2022-07-29T14:30:28.629Z,92770.22
2022-07-29T14:32:58.554Z,92772.19
2022-07-29T14:35:28.769Z,92770.56
2022-07-29T14:37:58.790Z,92762.47
2022-07-29T14:40:30.547Z,92771.22
2022-07-29T14:43:00.629Z,92779.81
2022-07-29T14:45:30.797Z,92778.41
2022-07-29T14:48:01.273Z,92765.53
2022-07-29T14:50:32.005Z,92771.91
2022-07-29T14:53:02.564Z,92769.69
2022-07-29T14:55:34.188Z,92766.53
2022-07-29T14:58:10.922Z,92773.31
2022-07-29T15:00:41.847Z,92772.88
2022-07-29T15:03:11.915Z,92769.59
2022-07-29T15:05:41.424Z,92771.56
2022-07-29T15:08:11.047Z,92771.31
2022-07-29T15:10:42.025Z,92768.75
2022-07-29T15:13:11.697Z,92771.75
2022-07-29T15:15:42.516Z,92760.63
2022-07-29T15:18:12.120Z,92760.59
2022-07-29T15:20:41.848Z,92762.53
2022-07-29T15:23:11.444Z,92762.38
2022-07-29T15:25:42.803Z,92764.09
2022-07-29T15:28:12.264Z,92770.13
2022-07-29T15:30:43.123Z,92763.56
2022-07-29T15:33:13.027Z,92768.72
2022-07-29T15:35:42.551Z,92760.53
2022-07-29T15:38:12.147Z,92758.91
2022-07-29T15:40:44.828Z,92759.59
2022-07-29T15:43:14.992Z,92758.44
2022-07-29T15:46:06.954Z,92760.75
2022-07-29T15:48:36.808Z,92751.38
2022-07-29T15:54:05.213Z,92762.38
2022-07-29T15:56:35.746Z,92756.22
2022-07-29T15:59:05.848Z,92763.34
2022-07-29T16:01:36.930Z,92768.22
2022-07-29T16:04:12.691Z,92772.25
2022-07-29T16:06:42.727Z,92768.97
2022-07-29T16:09:14.856Z,92764.63
2022-07-29T16:11:44.969Z,92769.19
2022-07-29T16:14:15.284Z,92768.63
2022-07-29T16:16:45.655Z,92771.38
2022-07-29T16:19:15.752Z,92763.75
2022-07-29T16:21:45.828Z,92765.84
2022-07-29T16:24:17.332Z,92770.25
2022-07-29T16:26:47.254Z,92772.66
2022-07-29T16:29:18.512Z,92771.66
2022-07-29T16:31:48.430Z,92770.47
2022-07-29T16:34:18.392Z,92767.16
2022-07-29T16:36:48.455Z,92773.28
2022-07-29T16:39:19.729Z,92768.22
2022-07-29T16:41:49.746Z,92775.13
2022-07-29T16:44:19.600Z,92782.47
2022-07-29T16:46:49.628Z,92784.47
2022-07-29T16:49:20.025Z,92787.50
2022-07-29T16:51:50.028Z,92790.97
2022-07-29T16:54:21.577Z,92792.16
2022-07-29T16:56:51.509Z,92798.78
2022-07-29T16:59:21.404Z,92797.41
2022-07-29T17:01:51.837Z,92796.66
2022-07-29T17:04:22.936Z,92798.75
2022-07-29T17:06:53.105Z,92799.63
2022-07-29T17:09:24.495Z,92802.09
2022-07-29T17:11:55.225Z,92798.63
2022-07-29T17:14:28.032Z,92804.22
2022-07-29T17:17:01.634Z,92803.59
2022-07-29T17:19:36.571Z,92801.78
2022-07-29T17:22:15.626Z,92803.66
2022-07-29T17:24:51.272Z,92801.59
2022-07-29T17:27:21.696Z,92810.41
2022-07-29T17:29:51.646Z,92801.75
2022-07-29T17:32:21.644Z,92805.88
2022-07-29T17:34:51.849Z,92809.97
2022-07-29T17:37:22.268Z,92812.41
2022-07-29T17:39:57.317Z,92809.13
2022-07-29T17:42:30.054Z,92809.09
2022-07-29T17:45:00.150Z,92809.09
2022-07-29T17:47:30.093Z,92805.81
2022-07-29T17:50:00.119Z,92799.59
2022-07-29T17:52:30.026Z,92808.19
2022-07-29T17:55:01.687Z,92820.63
2022-07-29T17:57:31.727Z,92812.81
2022-07-29T18:00:01.637Z,92815.88
2022-07-29T18:02:31.757Z,92823.22
2022-07-29T18:05:01.916Z,92821.31
2022-07-29T18:07:31.767Z,92833.41
2022-07-29T18:10:03.477Z,92840.94
2022-07-29T18:12:33.406Z,92840.91
2022-07-29T18:15:03.349Z,92838.63
2022-07-29T18:17:34.480Z,92840.63
2022-07-29T18:20:23.169Z,92836.91
2022-07-29T18:22:53.084Z,92837.28
2022-07-29T18:25:24.751Z,92842.78
2022-07-29T18:27:59.883Z,92847.75
2022-07-29T18:30:31.344Z,92851.44
2022-07-29T18:36:04.240Z,92854.97
2022-07-29T18:38:42.429Z,92853.50
2022-07-29T18:41:13.769Z,92859.22
2022-07-29T18:43:43.733Z,92860.91
2022-07-29T18:46:13.936Z,92869.75
2022-07-29T18:48:44.265Z,92871.81
2022-07-29T18:54:02.746Z,92879.09
2022-07-29T18:56:32.607Z,92874.22
2022-07-29T18:59:02.688Z,92873.84
2022-07-29T19:01:32.858Z,92875.28
2022-07-29T19:04:03.212Z,92878.59
2022-07-29T19:06:33.195Z,92893.19
2022-07-29T19:09:04.828Z,92886.25
2022-07-29T19:11:34.672Z,92889.34
2022-07-29T19:14:05.152Z,92890.16
2022-07-29T19:16:35.245Z,92901.66
2022-07-29T19:19:05.969Z,92897.16
2022-07-29T19:21:36.292Z,92893.44
2022-07-29T19:24:13.722Z,92896.97
2022-07-29T19:26:47.099Z,92907.38
2022-07-29T19:29:17.710Z,92899.78
2022-07-29T19:31:47.628Z,92907.59
2022-07-29T19:34:17.596Z,92907.38
2022-07-29T19:36:47.713Z,92910.69
2022-07-29T19:39:19.166Z,92901.88
2022-07-29T19:42:05.824Z,92902.25
2022-07-29T19:44:35.947Z,92902.91
2022-07-29T19:47:05.828Z,92900.41
2022-07-29T19:49:38.134Z,92902.91
2022-07-29T19:52:09.024Z,92894.69
2022-07-29T19:54:40.590Z,92892.63
2022-07-29T19:57:10.408Z,92897.16
2022-07-29T19:59:40.710Z,92898.59
2022-07-29T20:02:12.611Z,92902.31
2022-07-29T20:04:42.386Z,92905.34
2022-07-29T20:07:13.558Z,92910.91
2022-07-29T20:09:46.263Z,92909.44
2022-07-29T20:12:16.223Z,92911.88
2022-07-29T20:14:46.168Z,92908.31
2022-07-29T20:17:16.207Z,92909.34
2022-07-29T20:19:46.228Z,92910.78
2022-07-29T20:22:21.002Z,92910.59
2022-07-29T20:24:52.888Z,92909.38
2022-07-29T20:27:22.852Z,92912.69
2022-07-29T20:29:52.786Z,92912.47
2022-07-29T20:32:23.272Z,92914.34
2022-07-29T20:34:53.206Z,92911.06
2022-07-29T20:37:23.045Z,92913.03
2022-07-29T20:39:54.574Z,92915.41
2022-07-29T20:42:24.365Z,92915.00
2022-07-29T20:44:54.327Z,92912.50
2022-07-29T20:47:24.328Z,92915.59
2022-07-29T20:49:54.555Z,92919.47
2022-07-29T20:52:24.465Z,92921.06
2022-07-29T20:54:55.868Z,92920.41
2022-07-29T20:57:39.379Z,92926.91
2022-07-29T21:00:12.516Z,92927.38
2022-07-29T21:02:42.200Z,92936.19
2022-07-29T21:05:12.949Z,92934.56
2022-07-29T21:07:43.092Z,92937.28
2022-07-29T21:10:14.609Z,92938.78
2022-07-29T21:12:44.526Z,92929.91
2022-07-29T21:15:16.607Z,92938.63
2022-07-29T21:17:48.513Z,92939.13
2022-07-29T21:20:20.876Z,92923.34
2022-07-29T21:22:50.910Z,92936.66
2022-07-29T21:25:22.370Z,92932.03
2022-07-29T21:28:09.377Z,92931.28
2022-07-29T21:30:39.530Z,92928.53
2022-07-29T21:33:09.573Z,92922.97
2022-07-29T21:36:14.884Z,92928.72
2022-07-29T21:38:30.333Z,92930.63
2022-07-29T21:41:02.209Z,92931.91
2022-07-29T21:43:32.490Z,92922.34
2022-07-29T21:46:03.547Z,92925.19
2022-07-29T21:48:33.405Z,92931.16
2022-07-29T21:54:02.407Z,92945.06
2022-07-29T21:56:32.892Z,92941.22
2022-07-29T21:59:02.792Z,92936.97
2022-07-29T22:01:39.335Z,92934.66
2022-07-29T22:04:09.893Z,92932.38
2022-07-29T22:06:39.963Z,92935.72
2022-07-29T22:09:11.537Z,92932.41
2022-07-29T22:11:42.309Z,92935.06
2022-07-29T22:14:12.698Z,92929.47
2022-07-29T22:16:42.973Z,92929.94
2022-07-29T22:19:13.070Z,92931.88
2022-07-29T22:21:43.866Z,92932.41
2022-07-29T22:24:15.309Z,92937.78
2022-07-29T22:26:45.168Z,92934.44
2022-07-29T22:29:17.909Z,92927.00
2022-07-29T22:31:47.913Z,92932.19
2022-07-29T22:34:18.229Z,92929.91
2022-07-29T22:36:48.047Z,92926.28
2022-07-29T22:39:19.589Z,92927.28
2022-07-29T22:41:49.547Z,92924.28
2022-07-29T22:44:19.623Z,92922.97
2022-07-29T22:46:49.468Z,92916.69
2022-07-29T22:49:19.461Z,92911.84
2022-07-29T22:51:49.390Z,92906.75
2022-07-29T22:54:21.008Z,92908.38
2022-07-29T22:56:50.896Z,92905.22
2022-07-29T22:59:22.428Z,92906.25
2022-07-29T23:01:52.258Z,92905.94
2022-07-29T23:04:24.114Z,92907.94
2022-07-29T23:06:54.126Z,92901.97
2022-07-29T23:09:25.593Z,92902.66
2022-07-29T23:11:55.426Z,92904.28
2022-07-29T23:14:25.406Z,92903.81
2022-07-29T23:16:55.348Z,92905.28
2022-07-29T23:19:25.319Z,92900.41
2022-07-29T23:21:55.268Z,92900.56
2022-07-29T23:24:26.689Z,92890.28
2022-07-29T23:26:56.645Z,92888.28
2022-07-29T23:29:26.724Z,92895.44
2022-07-29T23:31:56.551Z,92888.81
2022-07-29T23:34:26.628Z,92883.19
2022-07-29T23:36:56.537Z,92882.03
2022-07-29T23:39:28.127Z,92883.84
2022-07-29T23:41:58.114Z,92882.38
2022-07-29T23:44:28.230Z,92890.41
2022-07-29T23:46:58.475Z,92886.94
2022-07-29T23:49:28.731Z,92886.72
2022-07-29T23:51:58.690Z,92886.03
2022-07-29T23:54:30.126Z,92881.59
2022-07-29T23:57:00.468Z,92873.94
2022-07-29T23:59:30.583Z,92881.56
